Monticello, Arkansas
Current Conditions -  °F | °C
As of 9:53 AM on Sunday 21 Dec 2014 (Local Time) from KLLQ Reporting Station
Broken Clouds Broken Clouds  
Wind Chill: 42°   Ceiling: 7000
Heat Index: 45°   Visibility: 10mi
Dew Point: 36°   Wind: 6mph
Humidity: 71%   Direction: 100°E
Pressure: 30.18"   Gusts: NA
Location:  33.63°N, 91.79°W
Report Text: KLLQ 211553Z AUTO 10005KT 10SM BKN070 07/02 A3018 RMK AO2 SLP221 T00720022
Loading
Personal Weather Stations






























Interactive Weather Map New forecast layout! Learn more

10-Day Weather Forecast

Advertisements
Track Severe Weather on mobile